createdAt,value
2022-12-27T00:01:51.332Z,1.10
2022-12-27T00:04:37.074Z,1.77
2022-12-27T00:07:22.966Z,1.42
2022-12-27T00:10:09.326Z,1.70
2022-12-27T00:12:55.326Z,1.63
2022-12-27T00:15:40.638Z,1.70
2022-12-27T00:18:26.215Z,1.42
2022-12-27T00:21:13.887Z,1.38
2022-12-27T00:24:01.036Z,2.17
2022-12-27T00:26:47.300Z,1.77
2022-12-27T00:29:32.921Z,1.80
2022-12-27T00:32:18.516Z,1.05
2022-12-27T00:35:04.571Z,2.80
2022-12-27T00:37:50.335Z,1.55
2022-12-27T00:40:39.667Z,1.40
2022-12-27T00:43:26.878Z,2.50
2022-12-27T00:46:12.731Z,1.38
2022-12-27T00:48:58.736Z,1.20
2022-12-27T00:51:44.181Z,1.23
2022-12-27T00:54:29.773Z,1.27
2022-12-27T00:57:15.324Z,1.55
2022-12-27T01:00:06.168Z,1.50
2022-12-27T01:02:55.265Z,2.03
2022-12-27T01:05:40.599Z,1.65
2022-12-27T01:08:26.234Z,1.20
2022-12-27T01:11:13.515Z,0.93
2022-12-27T01:14:02.999Z,1.52
2022-12-27T01:16:52.257Z,1.10
2022-12-27T01:19:40.423Z,1.80
2022-12-27T01:22:27.781Z,1.38
2022-12-27T01:25:13.216Z,1.23
2022-12-27T01:27:58.720Z,1.30
2022-12-27T01:30:44.309Z,1.13
2022-12-27T01:33:29.841Z,0.90
2022-12-27T01:36:20.621Z,1.02
2022-12-27T01:39:06.788Z,1.10
2022-12-27T01:42:10.612Z,1.75
2022-12-27T01:44:57.849Z,1.20
2022-12-27T01:47:58.765Z,1.15
2022-12-27T01:50:49.688Z,1.00
2022-12-27T01:53:39.434Z,1.88
2022-12-27T01:56:30.102Z,2.03
2022-12-27T01:59:15.825Z,1.20
2022-12-27T02:02:01.457Z,1.35
2022-12-27T02:04:47.598Z,2.13
2022-12-27T02:07:54.695Z,1.52
2022-12-27T02:10:40.643Z,1.08
2022-12-27T02:13:26.920Z,1.58
2022-12-27T02:16:15.460Z,1.50
2022-12-27T02:19:00.873Z,1.88
2022-12-27T02:22:13.668Z,1.40
2022-12-27T02:25:08.285Z,1.45
2022-12-27T02:28:34.503Z,1.17
2022-12-27T02:31:47.182Z,1.98
2022-12-27T02:34:52.601Z,1.35
2022-12-27T02:37:57.715Z,2.55
2022-12-27T02:41:04.150Z,1.80
2022-12-27T02:44:08.337Z,1.60
2022-12-27T02:47:13.239Z,1.10
2022-12-27T02:50:17.472Z,2.38
2022-12-27T02:53:14.598Z,1.17
2022-12-27T02:56:35.163Z,1.50
2022-12-27T02:59:59.085Z,1.58
2022-12-27T03:03:23.474Z,1.42
2022-12-27T03:06:42.949Z,1.80
2022-12-27T03:10:11.644Z,1.35
2022-12-27T03:13:18.706Z,1.88
2022-12-27T03:16:10.215Z,1.30
2022-12-27T03:19:03.465Z,1.80
2022-12-27T03:22:08.529Z,2.25
2022-12-27T03:25:15.288Z,1.58
2022-12-27T03:28:31.851Z,1.20
2022-12-27T03:31:45.280Z,1.48
2022-12-27T03:34:40.023Z,1.70
2022-12-27T03:37:57.528Z,1.23
2022-12-27T03:41:09.591Z,1.40
2022-12-27T03:43:55.256Z,1.70
2022-12-27T03:46:43.579Z,1.30
2022-12-27T03:50:02.713Z,1.52
2022-12-27T03:52:55.392Z,2.05
2022-12-27T03:55:42.059Z,2.20
2022-12-27T03:58:27.448Z,1.52
2022-12-27T04:01:13.364Z,1.85
2022-12-27T04:03:58.821Z,1.50
2022-12-27T04:06:44.345Z,1.40
2022-12-27T04:09:48.581Z,1.10
2022-12-27T04:15:56.918Z,1.35
2022-12-27T04:19:00.686Z,1.48
2022-12-27T04:25:08.586Z,1.77
2022-12-27T04:28:12.353Z,1.45
2022-12-27T04:34:20.184Z,1.85
2022-12-27T04:37:05.940Z,1.55
2022-12-27T04:40:09.950Z,1.33
2022-12-27T04:43:14.157Z,1.40
2022-12-27T04:46:17.672Z,1.95
2022-12-27T04:49:21.789Z,1.55
2022-12-27T04:52:42.826Z,1.20
2022-12-27T04:55:29.875Z,1.50
2022-12-27T04:58:15.425Z,1.45
2022-12-27T05:01:22.099Z,1.70
2022-12-27T05:04:07.777Z,1.25
2022-12-27T05:06:53.915Z,1.45
2022-12-27T05:09:57.540Z,1.25
2022-12-27T05:13:01.672Z,1.77
2022-12-27T05:15:48.297Z,1.10
2022-12-27T05:18:33.541Z,1.63
2022-12-27T05:21:19.210Z,1.67
2022-12-27T05:24:23.875Z,1.35
2022-12-27T05:27:09.430Z,1.38
2022-12-27T05:29:54.845Z,1.45
2022-12-27T05:32:40.663Z,1.45
2022-12-27T05:35:26.028Z,2.10
2022-12-27T05:38:11.298Z,1.45
2022-12-27T05:41:03.958Z,1.80
2022-12-27T05:43:49.597Z,1.45
2022-12-27T05:46:35.555Z,1.63
2022-12-27T05:49:20.952Z,1.08
2022-12-27T05:52:06.723Z,1.45
2022-12-27T05:54:52.027Z,1.50
2022-12-27T05:57:37.954Z,2.05
2022-12-27T06:00:23.434Z,1.20
2022-12-27T06:03:09.130Z,1.20
2022-12-27T06:06:01.866Z,1.60
2022-12-27T06:08:47.292Z,1.58
2022-12-27T06:11:32.835Z,2.33
2022-12-27T06:14:18.429Z,2.58
2022-12-27T06:17:03.938Z,1.25
2022-12-27T06:19:53.908Z,1.75
2022-12-27T06:22:42.465Z,1.33
2022-12-27T06:25:28.178Z,1.33
2022-12-27T06:28:13.318Z,1.65
2022-12-27T06:31:00.165Z,1.60
2022-12-27T06:33:46.965Z,1.85
2022-12-27T06:36:32.624Z,1.35
2022-12-27T06:39:19.275Z,1.13
2022-12-27T06:42:04.807Z,1.60
2022-12-27T06:44:50.169Z,1.42
2022-12-27T06:47:36.578Z,1.30
2022-12-27T06:50:22.196Z,1.60
2022-12-27T06:53:07.899Z,0.98
2022-12-27T06:55:53.588Z,1.25
2022-12-27T06:58:39.454Z,1.20
2022-12-27T07:01:27.161Z,1.17
2022-12-27T07:04:12.721Z,1.25
2022-12-27T07:06:58.205Z,1.10
2022-12-27T07:09:43.934Z,1.88
2022-12-27T07:12:36.264Z,1.48
2022-12-27T07:15:21.920Z,1.95
2022-12-27T07:18:07.526Z,1.80
2022-12-27T07:20:53.073Z,0.95
2022-12-27T07:23:39.221Z,1.60
2022-12-27T07:26:30.278Z,1.02
2022-12-27T07:29:16.075Z,1.10
2022-12-27T07:32:01.581Z,1.98
2022-12-27T07:34:47.086Z,1.20
2022-12-27T07:37:32.651Z,2.33
2022-12-27T07:40:18.169Z,1.80
2022-12-27T07:43:04.094Z,0.90
2022-12-27T07:45:49.431Z,1.15
2022-12-27T07:48:35.329Z,1.23
2022-12-27T07:51:21.843Z,1.73
2022-12-27T07:54:07.411Z,2.13
2022-12-27T07:56:52.708Z,1.48
2022-12-27T07:59:38.213Z,1.80
2022-12-27T08:02:23.813Z,1.30
2022-12-27T08:05:10.015Z,2.05
2022-12-27T08:07:55.336Z,1.92
2022-12-27T08:10:41.179Z,1.23
2022-12-27T08:13:26.895Z,1.80
2022-12-27T08:16:18.906Z,2.05
2022-12-27T08:19:08.354Z,1.50
2022-12-27T08:21:54.318Z,2.20
2022-12-27T08:24:41.527Z,2.40
2022-12-27T08:27:27.003Z,1.40
2022-12-27T08:30:12.623Z,2.55
2022-12-27T08:32:58.141Z,2.65
2022-12-27T08:35:54.136Z,2.00
2022-12-27T08:38:40.222Z,1.75
2022-12-27T08:41:25.976Z,2.00
2022-12-27T08:44:12.102Z,1.50
2022-12-27T08:46:59.723Z,1.30
2022-12-27T08:49:45.562Z,1.20
2022-12-27T08:52:31.302Z,2.33
2022-12-27T08:55:16.832Z,1.45
2022-12-27T08:58:10.558Z,1.10
2022-12-27T09:01:06.843Z,1.42
2022-12-27T09:03:52.868Z,1.30
2022-12-27T09:06:40.674Z,1.40
2022-12-27T09:09:26.448Z,2.08
2022-12-27T09:12:11.897Z,1.58
2022-12-27T09:14:59.592Z,1.23
2022-12-27T09:17:59.368Z,1.25
2022-12-27T09:20:44.789Z,1.08
2022-12-27T09:23:30.817Z,1.30
2022-12-27T09:26:25.477Z,2.63
2022-12-27T09:29:11.253Z,2.00
2022-12-27T09:31:57.214Z,1.85
2022-12-27T09:34:42.833Z,1.63
2022-12-27T09:37:28.329Z,2.53
2022-12-27T09:41:11.551Z,1.20
2022-12-27T09:44:03.041Z,3.65
2022-12-27T09:47:20.423Z,2.25
2022-12-27T09:50:27.734Z,3.63
2022-12-27T09:53:37.934Z,1.05
2022-12-27T09:56:40.892Z,1.48
2022-12-27T09:59:40.365Z,1.70
2022-12-27T10:02:28.525Z,2.05
2022-12-27T10:05:23.505Z,1.40
2022-12-27T10:08:12.359Z,1.75
2022-12-27T10:11:38.638Z,1.88
2022-12-27T10:14:42.793Z,1.77
2022-12-27T10:17:51.131Z,1.55
2022-12-27T10:20:48.202Z,1.20
2022-12-27T10:23:36.042Z,1.60
2022-12-27T10:26:22.113Z,1.40
2022-12-27T10:29:25.479Z,1.98
2022-12-27T10:32:14.353Z,1.83
2022-12-27T10:35:02.858Z,1.50
2022-12-27T10:37:49.607Z,2.08
2022-12-27T10:41:11.733Z,2.55
2022-12-27T10:43:56.945Z,1.50
2022-12-27T10:46:48.956Z,2.15
2022-12-27T10:49:35.582Z,1.88
2022-12-27T10:52:24.181Z,2.38
2022-12-27T10:55:32.555Z,2.17
2022-12-27T10:58:51.578Z,1.80
2022-12-27T11:01:40.683Z,2.88
2022-12-27T11:04:27.130Z,1.38
2022-12-27T11:07:17.310Z,2.00
2022-12-27T11:10:27.919Z,1.27
2022-12-27T11:13:19.096Z,2.28
2022-12-27T11:16:05.815Z,1.63
2022-12-27T11:18:54.293Z,1.52
2022-12-27T11:21:40.953Z,1.75
2022-12-27T11:24:26.517Z,2.63
2022-12-27T11:27:22.621Z,2.53
2022-12-27T11:30:25.714Z,2.00
2022-12-27T11:33:37.830Z,2.33
2022-12-27T11:36:31.619Z,2.08
2022-12-27T11:39:40.422Z,1.98
2022-12-27T11:42:32.616Z,1.90
2022-12-27T11:45:19.072Z,1.88
2022-12-27T11:48:42.499Z,2.25
2022-12-27T11:51:40.366Z,2.47
2022-12-27T11:54:46.824Z,2.55
2022-12-27T11:58:08.315Z,1.60
2022-12-27T12:01:29.900Z,1.80
2022-12-27T12:04:35.817Z,1.67
2022-12-27T12:07:47.779Z,2.08
2022-12-27T12:10:52.016Z,1.63
2022-12-27T12:14:15.738Z,2.67
2022-12-27T12:17:19.500Z,1.67
2022-12-27T12:20:25.348Z,2.83
2022-12-27T12:23:37.504Z,2.38
2022-12-27T12:26:26.639Z,2.20
2022-12-27T12:29:25.642Z,2.28
2022-12-27T12:32:17.181Z,1.83
2022-12-27T12:35:33.987Z,2.00
2022-12-27T12:38:31.060Z,2.28
2022-12-27T12:41:38.695Z,2.72
2022-12-27T12:45:05.027Z,1.60
2022-12-27T12:48:20.873Z,2.65
2022-12-27T12:51:30.805Z,1.50
2022-12-27T12:54:25.542Z,2.85
2022-12-27T12:57:26.325Z,2.13
2022-12-27T13:00:28.286Z,2.00
2022-12-27T13:03:35.396Z,3.15
2022-12-27T13:06:40.161Z,2.42
2022-12-27T13:10:03.859Z,2.30
2022-12-27T13:13:03.467Z,2.10
2022-12-27T13:16:10.762Z,2.95
2022-12-27T13:19:11.565Z,2.25
2022-12-27T13:22:07.583Z,1.77
2022-12-27T13:25:29.032Z,1.40
2022-12-27T13:28:33.342Z,2.85
2022-12-27T13:31:47.785Z,2.20
2022-12-27T13:34:39.647Z,2.15
2022-12-27T13:38:10.053Z,1.67
2022-12-27T13:41:03.679Z,1.88
2022-12-27T13:44:24.574Z,2.25
2022-12-27T13:47:16.335Z,1.98
2022-12-27T13:50:17.894Z,2.53
2022-12-27T13:53:39.698Z,1.80
2022-12-27T13:56:54.811Z,3.42
2022-12-27T14:00:18.383Z,2.05
2022-12-27T14:03:45.594Z,2.03
2022-12-27T14:06:42.870Z,2.22
2022-12-27T14:10:05.701Z,2.47
2022-12-27T14:12:54.995Z,2.03
2022-12-27T14:15:43.507Z,3.25
2022-12-27T14:18:35.301Z,1.77
2022-12-27T14:21:35.486Z,2.45
2022-12-27T14:24:57.541Z,2.72
2022-12-27T14:27:49.314Z,2.72
2022-12-27T14:31:09.053Z,2.03
2022-12-27T14:34:36.545Z,2.22
2022-12-27T14:37:59.706Z,3.42
2022-12-27T14:41:12.351Z,2.13
2022-12-27T14:44:19.265Z,3.13
2022-12-27T14:47:07.650Z,2.47
2022-12-27T14:50:26.496Z,3.25
2022-12-27T14:53:33.353Z,3.20
2022-12-27T14:56:27.415Z,3.90
2022-12-27T14:59:48.940Z,2.90
2022-12-27T15:02:55.010Z,2.60
2022-12-27T15:05:49.444Z,3.20
2022-12-27T15:08:49.199Z,2.70
2022-12-27T15:11:51.076Z,2.30
2022-12-27T15:14:54.053Z,2.92
2022-12-27T15:18:02.430Z,2.05
2022-12-27T15:21:14.571Z,2.78
2022-12-27T15:24:10.021Z,2.38
2022-12-27T15:27:41.138Z,2.83
2022-12-27T15:30:52.359Z,3.95
2022-12-27T15:33:47.180Z,3.90
2022-12-27T15:36:44.552Z,2.50
2022-12-27T15:39:32.844Z,2.80
2022-12-27T15:42:48.753Z,1.88
2022-12-27T15:45:50.148Z,2.75
2022-12-27T15:48:57.637Z,2.72
2022-12-27T15:51:54.434Z,2.20
2022-12-27T15:54:53.979Z,3.35
2022-12-27T15:57:53.985Z,3.10
2022-12-27T16:00:40.344Z,4.05
2022-12-27T16:03:32.548Z,2.95
2022-12-27T16:06:33.536Z,4.20
2022-12-27T16:09:35.730Z,2.75
2022-12-27T16:12:39.937Z,3.10
2022-12-27T16:15:54.125Z,5.18
2022-12-27T16:18:47.127Z,3.88
2022-12-27T16:21:41.937Z,2.50
2022-12-27T16:24:28.148Z,4.65
2022-12-27T16:27:27.422Z,3.05
2022-12-27T16:30:13.214Z,3.90
2022-12-27T16:33:01.022Z,3.35
2022-12-27T16:35:46.536Z,4.75
2022-12-27T16:38:34.415Z,3.50
2022-12-27T16:41:56.940Z,3.10
2022-12-27T16:45:03.313Z,2.92
2022-12-27T16:47:58.470Z,3.72
2022-12-27T16:51:08.176Z,3.25
2022-12-27T16:54:22.503Z,2.60
2022-12-27T16:57:26.567Z,3.10
2022-12-27T17:00:44.293Z,3.40
2022-12-27T17:03:38.400Z,2.83
2022-12-27T17:06:32.961Z,3.33
2022-12-27T17:09:22.500Z,2.55
2022-12-27T17:12:18.464Z,3.17
2022-12-27T17:15:05.742Z,3.53
2022-12-27T17:17:55.756Z,4.75
2022-12-27T17:20:41.692Z,7.50
2022-12-27T17:23:27.895Z,3.47
2022-12-27T17:26:46.861Z,3.65
2022-12-27T17:29:42.407Z,3.50
2022-12-27T17:32:53.116Z,4.07
2022-12-27T17:36:04.140Z,3.05
2022-12-27T17:39:14.245Z,2.55
2022-12-27T17:42:43.420Z,2.75
2022-12-27T17:46:12.900Z,4.43
2022-12-27T17:48:59.161Z,3.35
2022-12-27T17:52:04.766Z,3.50
2022-12-27T17:55:08.776Z,3.58
2022-12-27T17:57:56.203Z,3.50
2022-12-27T18:00:57.545Z,2.33
2022-12-27T18:03:46.577Z,3.17
2022-12-27T18:06:32.483Z,3.17
2022-12-27T18:09:43.127Z,2.40
2022-12-27T18:12:34.443Z,2.92
2022-12-27T18:15:23.464Z,2.92
2022-12-27T18:18:09.846Z,3.30
2022-12-27T18:21:01.676Z,4.03
2022-12-27T18:23:49.120Z,3.30
2022-12-27T18:26:39.462Z,2.85
2022-12-27T18:29:25.033Z,2.50
2022-12-27T18:32:14.019Z,3.10
2022-12-27T18:35:03.291Z,3.28
2022-12-27T18:37:48.840Z,3.55
2022-12-27T18:40:35.442Z,3.17
2022-12-27T18:43:21.223Z,3.50
2022-12-27T18:46:07.819Z,2.53
2022-12-27T18:48:53.636Z,3.03
2022-12-27T18:51:39.779Z,2.63
2022-12-27T18:54:28.206Z,2.45
2022-12-27T18:57:35.539Z,3.53
2022-12-27T19:00:25.194Z,2.53
2022-12-27T19:03:19.658Z,3.78
2022-12-27T19:06:05.522Z,1.83
2022-12-27T19:08:53.006Z,4.13
2022-12-27T19:11:39.280Z,2.75
2022-12-27T19:14:26.607Z,2.83
2022-12-27T19:17:30.545Z,2.83
2022-12-27T19:20:26.621Z,1.98
2022-12-27T19:23:26.275Z,3.22
2022-12-27T19:26:17.993Z,2.20
2022-12-27T19:29:13.055Z,2.45
2022-12-27T19:32:05.747Z,3.17
2022-12-27T19:34:55.670Z,2.75
2022-12-27T19:37:41.438Z,2.65
2022-12-27T19:40:27.023Z,2.72
2022-12-27T19:43:14.763Z,2.55
2022-12-27T19:46:00.751Z,2.13
2022-12-27T19:49:07.594Z,2.15
2022-12-27T19:51:57.296Z,2.78
2022-12-27T19:54:47.362Z,1.73
2022-12-27T19:57:32.914Z,2.30
2022-12-27T20:00:19.301Z,2.42
2022-12-27T20:03:05.448Z,2.45
2022-12-27T20:06:13.329Z,2.83
2022-12-27T20:08:56.806Z,2.10
2022-12-27T20:11:42.461Z,2.67
2022-12-27T20:14:28.158Z,2.28
2022-12-27T20:17:13.505Z,1.92
2022-12-27T20:19:59.165Z,2.45
2022-12-27T20:22:47.027Z,3.03
2022-12-27T20:25:34.953Z,2.35
2022-12-27T20:28:20.424Z,4.47
2022-12-27T20:31:12.368Z,2.67
2022-12-27T20:33:57.745Z,2.20
2022-12-27T20:36:44.674Z,2.35
2022-12-27T20:39:33.200Z,1.95
2022-12-27T20:42:19.044Z,1.77
2022-12-27T20:45:04.767Z,2.10
2022-12-27T20:47:50.879Z,1.80
2022-12-27T20:50:37.604Z,2.28
2022-12-27T20:53:27.771Z,2.10
2022-12-27T20:56:14.231Z,1.77
2022-12-27T20:59:01.510Z,1.25
2022-12-27T21:01:51.592Z,1.88
2022-12-27T21:04:40.519Z,1.67
2022-12-27T21:07:26.725Z,1.90
2022-12-27T21:10:12.236Z,1.23
2022-12-27T21:12:58.008Z,2.72
2022-12-27T21:15:47.016Z,1.75
2022-12-27T21:18:33.573Z,1.67
2022-12-27T21:21:21.946Z,1.48
2022-12-27T21:24:08.896Z,1.15
2022-12-27T21:26:56.505Z,1.85
2022-12-27T21:29:42.634Z,2.65
2022-12-27T21:32:28.254Z,1.40
2022-12-27T21:35:14.023Z,2.30
2022-12-27T21:37:59.453Z,1.77
2022-12-27T21:40:54.388Z,1.83
2022-12-27T21:43:40.571Z,1.85
2022-12-27T21:46:29.271Z,1.60
2022-12-27T21:49:14.675Z,2.08
2022-12-27T21:52:00.484Z,2.10
2022-12-27T21:54:45.693Z,2.35
2022-12-27T21:57:31.227Z,1.67
2022-12-27T22:00:17.115Z,1.80
2022-12-27T22:03:02.738Z,1.52
2022-12-27T22:05:48.858Z,1.92
2022-12-27T22:08:34.198Z,1.88
2022-12-27T22:11:21.244Z,1.98
2022-12-27T22:14:07.144Z,2.40
2022-12-27T22:16:52.487Z,1.65
2022-12-27T22:19:37.585Z,1.15
2022-12-27T22:22:23.118Z,1.30
2022-12-27T22:25:09.223Z,1.30
2022-12-27T22:27:54.660Z,1.20
2022-12-27T22:30:41.037Z,0.95
2022-12-27T22:33:26.531Z,0.85
2022-12-27T22:36:22.887Z,0.68
2022-12-27T22:39:08.391Z,1.55
2022-12-27T22:41:54.630Z,1.15
2022-12-27T22:44:41.261Z,0.80
2022-12-27T22:47:28.198Z,0.90
2022-12-27T22:50:13.938Z,0.30
2022-12-27T22:52:59.502Z,0.98
2022-12-27T22:55:48.262Z,0.80
2022-12-27T22:58:33.810Z,1.10
2022-12-27T23:01:22.509Z,0.65
2022-12-27T23:04:11.157Z,0.80
2022-12-27T23:06:57.019Z,0.50
2022-12-27T23:09:43.601Z,0.60
2022-12-27T23:12:29.675Z,0.40
2022-12-27T23:15:15.158Z,0.75
2022-12-27T23:18:00.887Z,0.50
2022-12-27T23:21:21.047Z,0.70
2022-12-27T23:23:52.901Z,0.45
2022-12-27T23:26:39.046Z,0.50
2022-12-27T23:29:24.747Z,0.60
2022-12-27T23:32:10.594Z,0.50
2022-12-27T23:34:56.086Z,1.05
2022-12-27T23:37:41.725Z,0.45
2022-12-27T23:40:27.658Z,0.50
2022-12-27T23:43:50.542Z,0.38
2022-12-27T23:46:29.509Z,0.70
2022-12-27T23:49:16.017Z,0.57
2022-12-27T23:52:01.506Z,0.30
2022-12-27T23:54:47.446Z,0.20
2022-12-27T23:57:33.088Z,0.60
